Time;durP1;ratioP1;P1;durP2;ratioP2;P2;SDS_P1;SDS_P2;PMS_P1;PMS_P2;Temp;Humidity;BMP_temperature;BMP_pressure;BME280_temperature;BME280_humidity;BME280_pressure;Samples;Min_cycle;Max_cycle;Signal;HPM_P1;HPM_P2
2021/01/03 09:39:15;;;;;;;21.97;10.20;;;;;;;;;;5035838;27;167805;-67
2021/01/03 09:41:45;;;;;;;22.27;10.30;;;;;;;;;;5007957;27;171030;-68
2021/01/03 09:44:22;;;;;;;18.27;10.47;;;;;;;;;;5019427;27;170108;-68
2021/01/03 09:47:00;;;;;;;17.07;10.03;;;;;;;;;;5026817;27;169707;-69
2021/01/03 09:49:35;;;;;;;25.30;10.47;;;;;;;;;;5021936;27;169159;-70
2021/01/03 09:52:21;;;;;;;22.97;9.80;;;;;;;;;;5008975;27;170956;-69
2021/01/03 09:55:02;;;;;;;13.77;8.90;;;;;;;;;;5025116;27;169897;-69
2021/01/03 09:57:48;;;;;;;18.07;8.87;;;;;;;;;;5025479;27;168842;-70
2021/01/03 10:00:20;;;;;;;15.57;8.90;;;;;;;;;;5028265;27;167584;-71
2021/01/03 10:02:47;;;;;;;21.03;8.90;;;;;;;;;;5030123;27;167768;-70
2021/01/03 10:05:20;;;;;;;16.40;8.77;;;;;;;;;;5038271;27;168012;-71
2021/01/03 10:07:55;;;;;;;16.30;9.47;;;;;;;;;;5065923;27;167898;-68
2021/01/03 10:10:22;;;;;;;15.30;8.00;;;;;;;;;;5061278;27;167844;-71
2021/01/03 10:12:48;;;;;;;15.70;7.97;;;;;;;;;;5067114;27;167036;-69
2021/01/03 10:15:21;;;;;;;18.10;8.57;;;;;;;;;;5050800;27;168180;-71
2021/01/03 10:17:58;;;;;;;19.27;8.27;;;;;;;;;;5049396;27;168219;-70
2021/01/03 10:20:34;;;;;;;20.87;8.87;;;;;;;;;;5048931;27;168987;-69
2021/01/03 10:23:01;;;;;;;20.10;7.87;;;;;;;;;;5009964;27;167483;-74
2021/01/03 10:25:28;;;;;;;17.50;7.37;;;;;;;;;;5037308;27;167376;-68
2021/01/03 10:28:05;;;;;;;14.67;7.90;;;;;;;;;;5040937;27;168498;-70
2021/01/03 10:30:32;;;;;;;14.43;7.17;;;;;;;;;;5044891;27;168713;-72
2021/01/03 10:32:59;;;;;;;15.53;7.60;;;;;;;;;;5045567;27;168513;-70
2021/01/03 10:35:26;;;;;;;15.23;7.73;;;;;;;;;;5048918;27;167417;-74
2021/01/03 10:37:54;;;;;;;14.20;7.10;;;;;;;;;;5044637;27;167890;-70
2021/01/03 10:40:21;;;;;;;12.30;7.90;;;;;;;;;;5039440;27;167345;-70
2021/01/03 10:42:49;;;;;;;14.30;7.63;;;;;;;;;;5039759;27;167484;-72
2021/01/03 10:45:16;;;;;;;10.87;6.87;;;;;;;;;;5047976;27;167547;-69
2021/01/03 10:47:43;;;;;;;10.77;6.73;;;;;;;;;;5049201;27;168208;-71
2021/01/03 10:50:11;;;;;;;11.10;7.00;;;;;;;;;;5036714;27;169077;-70
2021/01/03 10:52:37;;;;;;;14.47;7.00;;;;;;;;;;5022704;27;166856;-69
2021/01/03 10:55:05;;;;;;;13.80;6.80;;;;;;;;;;5033520;27;167685;-70
2021/01/03 10:57:32;;;;;;;14.37;6.97;;;;;;;;;;5027640;27;169056;-71
2021/01/03 10:59:58;;;;;;;13.43;6.67;;;;;;;;;;5019657;27;168842;-69
2021/01/03 11:02:25;;;;;;;8.87;6.70;;;;;;;;;;5034546;27;167576;-69
2021/01/03 11:04:52;;;;;;;18.57;6.80;;;;;;;;;;5024967;27;167765;-67
2021/01/03 11:07:19;;;;;;;10.80;6.40;;;;;;;;;;5014657;27;168295;-75
2021/01/03 11:09:47;;;;;;;9.93;6.53;;;;;;;;;;5020063;27;168313;-72
2021/01/03 11:12:14;;;;;;;6.97;5.47;;;;;;;;;;5032396;27;168160;-75
2021/01/03 11:14:41;;;;;;;11.90;6.20;;;;;;;;;;5034647;27;167637;-77
2021/01/03 11:17:08;;;;;;;8.17;5.37;;;;;;;;;;5034162;27;170701;-73
2021/01/03 11:19:35;;;;;;;11.90;5.73;;;;;;;;;;5034370;27;169321;-72
2021/01/03 11:22:04;;;;;;;10.63;5.70;;;;;;;;;;5031386;27;168452;-70
2021/01/03 11:24:31;;;;;;;6.97;5.40;;;;;;;;;;5028053;27;169124;-73
2021/01/03 11:27:00;;;;;;;11.17;5.40;;;;;;;;;;5033295;27;167784;-74
2021/01/03 11:29:46;;;;;;;7.20;5.13;;;;;;;;;;5030486;27;168207;-69
2021/01/03 11:32:15;;;;;;;12.10;5.60;;;;;;;;;;5032133;27;167563;-73
2021/01/03 11:34:42;;;;;;;8.67;5.23;;;;;;;;;;5030860;27;168168;-71
2021/01/03 11:37:10;;;;;;;9.90;4.80;;;;;;;;;;5033959;27;167533;-73
2021/01/03 11:39:38;;;;;;;9.53;5.27;;;;;;;;;;5033686;27;167837;-75
2021/01/03 11:42:08;;;;;;;7.83;5.10;;;;;;;;;;5031868;27;168468;-72
2021/01/03 11:44:35;;;;;;;7.43;4.80;;;;;;;;;;5034545;27;169009;-69
2021/01/03 11:47:03;;;;;;;5.87;4.60;;;;;;;;;;5030906;27;167701;-69
2021/01/03 11:49:33;;;;;;;11.63;4.97;;;;;;;;;;5033139;27;167715;-70
2021/01/03 11:52:06;;;;;;;10.77;4.70;;;;;;;;;;5014378;27;169028;-68
2021/01/03 11:54:34;;;;;;;10.80;4.67;;;;;;;;;;5021118;27;166953;-72
2021/01/03 11:57:01;;;;;;;14.33;4.63;;;;;;;;;;5033630;27;168378;-70
2021/01/03 11:59:28;;;;;;;13.00;4.33;;;;;;;;;;5032539;27;171072;-71
2021/01/03 12:02:02;;;;;;;16.37;4.90;;;;;;;;;;5014986;27;167687;-73
2021/01/03 12:04:29;;;;;;;7.57;4.40;;;;;;;;;;5018880;27;166970;-70
2021/01/03 12:07:00;;;;;;;7.90;4.50;;;;;;;;;;5027701;27;168187;-75
2021/01/03 12:09:30;;;;;;;7.70;4.33;;;;;;;;;;5033665;27;167312;-68
2021/01/03 12:11:57;;;;;;;11.83;3.93;;;;;;;;;;5021014;27;167413;-73
2021/01/03 12:14:24;;;;;;;10.60;4.10;;;;;;;;;;5026563;27;168738;-72
2021/01/03 12:16:58;;;;;;;11.93;4.37;;;;;;;;;;5039799;27;167972;-72
2021/01/03 12:19:25;;;;;;;5.13;3.80;;;;;;;;;;5033186;27;168857;-69
2021/01/03 12:21:52;;;;;;;7.60;4.00;;;;;;;;;;5031549;27;169195;-69
2021/01/03 12:24:19;;;;;;;6.93;3.90;;;;;;;;;;5033273;27;167837;-70
2021/01/03 12:26:48;;;;;;;6.50;4.17;;;;;;;;;;5033582;27;169251;-73
2021/01/03 12:29:16;;;;;;;4.10;3.60;;;;;;;;;;5032780;27;168758;-72
2021/01/03 12:31:47;;;;;;;8.40;3.70;;;;;;;;;;5032689;27;168702;-74
2021/01/03 12:34:15;;;;;;;10.97;4.50;;;;;;;;;;5033080;27;167600;-84
2021/01/03 12:36:41;;;;;;;7.43;3.83;;;;;;;;;;5024501;27;168833;-71
2021/01/03 12:39:09;;;;;;;5.90;4.23;;;;;;;;;;5032660;27;168234;-75
2021/01/03 12:41:36;;;;;;;8.53;3.80;;;;;;;;;;5033105;27;167715;-77
2021/01/03 12:44:04;;;;;;;5.70;3.67;;;;;;;;;;5033014;27;167332;-71
2021/01/03 12:46:32;;;;;;;5.00;3.63;;;;;;;;;;5033692;27;168281;-75
2021/01/03 12:48:59;;;;;;;9.53;3.53;;;;;;;;;;5027510;27;167791;-79
2021/01/03 12:51:27;;;;;;;10.37;3.93;;;;;;;;;;5013738;27;168081;-74
2021/01/03 12:53:54;;;;;;;7.87;3.73;;;;;;;;;;5032673;27;167890;-74
2021/01/03 12:56:26;;;;;;;11.07;4.30;;;;;;;;;;5032355;27;170599;-81
2021/01/03 12:58:53;;;;;;;4.73;3.57;;;;;;;;;;5031920;27;168728;-80
2021/01/03 13:01:26;;;;;;;14.17;3.80;;;;;;;;;;5031703;27;167630;-80
2021/01/03 13:03:53;;;;;;;5.83;3.87;;;;;;;;;;5030810;27;167891;-74
2021/01/03 13:06:20;;;;;;;6.17;3.67;;;;;;;;;;5031319;27;169133;-73
2021/01/03 13:08:46;;;;;;;10.47;3.70;;;;;;;;;;5031799;27;168170;-77
2021/01/03 13:11:13;;;;;;;3.90;3.20;;;;;;;;;;5030877;27;167832;-73
2021/01/03 13:13:40;;;;;;;12.07;4.10;;;;;;;;;;5031308;27;167423;-74
2021/01/03 13:16:07;;;;;;;10.33;3.70;;;;;;;;;;5031177;27;167675;-76
2021/01/03 13:18:34;;;;;;;6.67;3.50;;;;;;;;;;5030894;27;169098;-78
2021/01/03 13:21:00;;;;;;;6.90;3.90;;;;;;;;;;5029999;27;167879;-76
2021/01/03 13:23:27;;;;;;;10.27;3.47;;;;;;;;;;5032215;27;167333;-77
2021/01/03 13:25:54;;;;;;;4.80;3.43;;;;;;;;;;5036172;27;168206;-78
2021/01/03 13:28:21;;;;;;;6.67;3.77;;;;;;;;;;5053489;27;168168;-76
2021/01/03 13:30:50;;;;;;;9.00;3.63;;;;;;;;;;5048942;27;167615;-76
2021/01/03 13:33:17;;;;;;;4.70;3.60;;;;;;;;;;5013562;27;167807;-77
2021/01/03 13:35:44;;;;;;;5.33;3.70;;;;;;;;;;5032928;27;169136;-80
2021/01/03 13:38:11;;;;;;;4.67;3.73;;;;;;;;;;5031844;27;169306;-75
2021/01/03 13:40:43;;;;;;;17.83;4.60;;;;;;;;;;5033029;27;166856;-80
2021/01/03 13:43:10;;;;;;;10.97;3.70;;;;;;;;;;5051884;27;167686;-76
2021/01/03 13:45:37;;;;;;;7.80;3.87;;;;;;;;;;5053159;27;168312;-71
2021/01/03 13:48:04;;;;;;;4.27;3.27;;;;;;;;;;5050583;27;170155;-72
2021/01/03 13:50:30;;;;;;;8.67;3.60;;;;;;;;;;5050561;27;168808;-73
2021/01/03 13:53:02;;;;;;;15.17;4.00;;;;;;;;;;5051067;27;169371;-81
2021/01/03 13:55:31;;;;;;;4.77;3.63;;;;;;;;;;5049659;27;168497;-76
2021/01/03 13:57:58;;;;;;;5.30;3.57;;;;;;;;;;5011373;27;170989;-71
2021/01/03 14:00:26;;;;;;;6.43;3.67;;;;;;;;;;5039191;27;170491;-74
2021/01/03 14:02:53;;;;;;;9.17;3.70;;;;;;;;;;5051438;27;168802;-76
2021/01/03 14:05:20;;;;;;;7.23;3.70;;;;;;;;;;5034212;27;169507;-77
2021/01/03 14:07:47;;;;;;;5.43;3.53;;;;;;;;;;5030635;27;170600;-76
2021/01/03 14:10:14;;;;;;;5.33;4.00;;;;;;;;;;5045709;27;169036;-75
2021/01/03 14:12:41;;;;;;;7.77;3.60;;;;;;;;;;5041024;27;168880;-75
2021/01/03 14:15:09;;;;;;;5.83;3.70;;;;;;;;;;5032188;27;168286;-76
2021/01/03 14:17:37;;;;;;;5.30;3.60;;;;;;;;;;5036010;27;169954;-72
2021/01/03 14:20:04;;;;;;;5.70;3.20;;;;;;;;;;5043573;27;169455;-73
2021/01/03 14:22:33;;;;;;;7.13;3.40;;;;;;;;;;5038998;27;170073;-73
2021/01/03 14:25:00;;;;;;;8.03;3.47;;;;;;;;;;5032618;27;169159;-78
2021/01/03 14:27:27;;;;;;;4.30;3.27;;;;;;;;;;5033548;27;169737;-77
2021/01/03 14:29:54;;;;;;;3.97;3.47;;;;;;;;;;5040615;27;168630;-71
2021/01/03 14:32:25;;;;;;;5.53;3.53;;;;;;;;;;5036141;27;169367;-77
2021/01/03 14:34:52;;;;;;;4.00;3.60;;;;;;;;;;5027761;27;168770;-75
2021/01/03 14:37:28;;;;;;;4.27;3.57;;;;;;;;;;5037858;27;169234;-78
2021/01/03 14:39:56;;;;;;;5.67;3.17;;;;;;;;;;5035042;27;169256;-76
2021/01/03 14:42:26;;;;;;;7.43;3.67;;;;;;;;;;5031641;27;170964;-76
2021/01/03 14:44:57;;;;;;;8.83;3.50;;;;;;;;;;5029666;27;169886;-77
2021/01/03 14:47:30;;;;;;;5.23;3.63;;;;;;;;;;5034610;27;170641;-75
2021/01/03 14:50:06;;;;;;;5.80;3.70;;;;;;;;;;5012890;27;170588;-78
2021/01/03 14:52:36;;;;;;;20.53;4.70;;;;;;;;;;5024579;27;171145;-82
2021/01/03 14:55:12;;;;;;;16.83;4.63;;;;;;;;;;5015684;27;168896;-72
2021/01/03 14:57:40;;;;;;;12.80;3.83;;;;;;;;;;5016199;27;170474;-80
2021/01/03 15:00:13;;;;;;;6.27;3.87;;;;;;;;;;5032879;27;169703;-76
2021/01/03 15:02:58;;;;;;;6.77;4.13;;;;;;;;;;5030695;27;169149;-76
2021/01/03 15:05:25;;;;;;;18.30;4.77;;;;;;;;;;5010479;27;168291;-76
2021/01/03 15:07:57;;;;;;;18.33;4.40;;;;;;;;;;5015594;27;171008;-78
2021/01/03 15:10:23;;;;;;;24.07;4.80;;;;;;;;;;5046929;27;169199;-77
2021/01/03 15:12:50;;;;;;;16.27;4.97;;;;;;;;;;5030771;27;171333;-74
2021/01/03 15:15:24;;;;;;;17.47;5.10;;;;;;;;;;5030087;27;168985;-77
2021/01/03 15:17:54;;;;;;;42.27;7.30;;;;;;;;;;5015397;27;169655;-78
2021/01/03 15:20:24;;;;;;;30.20;6.33;;;;;;;;;;5027404;27;170900;-77
2021/01/03 15:23:12;;;;;;;17.37;4.40;;;;;;;;;;5046717;27;170329;-77
2021/01/03 15:25:46;;;;;;;29.10;5.83;;;;;;;;;;5029156;27;168505;-73
2021/01/03 15:28:19;;;;;;;11.40;5.40;;;;;;;;;;5031284;27;170056;-77
2021/01/03 15:30:51;;;;;;;6.57;3.73;;;;;;;;;;5031389;27;168941;-77
2021/01/03 15:33:20;;;;;;;14.87;5.87;;;;;;;;;;5028850;27;168464;-77
2021/01/03 15:35:47;;;;;;;11.30;4.27;;;;;;;;;;5011992;27;168526;-78
2021/01/03 15:38:15;;;;;;;12.77;5.07;;;;;;;;;;5015458;27;171004;-75
2021/01/03 15:40:46;;;;;;;6.27;4.00;;;;;;;;;;5017207;27;169938;-76
2021/01/03 15:43:29;;;;;;;7.90;4.10;;;;;;;;;;5032637;27;169751;-74
2021/01/03 15:46:02;;;;;;;10.53;4.50;;;;;;;;;;5023023;27;168954;-77
2021/01/03 15:48:29;;;;;;;8.93;4.00;;;;;;;;;;5012336;27;169251;-75
2021/01/03 15:50:57;;;;;;;12.20;4.87;;;;;;;;;;5013138;27;168668;-74
2021/01/03 15:53:25;;;;;;;11.30;4.93;;;;;;;;;;5011311;27;168353;-75
2021/01/03 15:55:53;;;;;;;7.23;3.77;;;;;;;;;;5013050;27;168249;-76
2021/01/03 15:58:22;;;;;;;12.23;3.90;;;;;;;;;;5023905;27;169412;-74
2021/01/03 16:00:51;;;;;;;9.67;3.40;;;;;;;;;;5028307;27;169036;-76
2021/01/03 16:03:17;;;;;;;4.63;3.67;;;;;;;;;;5026045;27;170570;-74
2021/01/03 16:05:44;;;;;;;12.83;4.83;;;;;;;;;;5024968;27;169198;-75
2021/01/03 16:08:11;;;;;;;4.17;3.40;;;;;;;;;;5016199;27;171004;-76
2021/01/03 16:10:37;;;;;;;15.40;6.50;;;;;;;;;;5012269;27;168486;-75
2021/01/03 16:13:04;;;;;;;7.40;3.73;;;;;;;;;;5015551;27;169163;-75
2021/01/03 16:15:33;;;;;;;13.57;4.63;;;;;;;;;;5032528;27;168479;-74
2021/01/03 16:18:00;;;;;;;4.73;4.23;;;;;;;;;;5032578;27;169797;-73
2021/01/03 16:20:27;;;;;;;14.87;5.13;;;;;;;;;;5032989;27;168717;-74
2021/01/03 16:22:57;;;;;;;8.53;3.63;;;;;;;;;;5031786;27;169145;-74
2021/01/03 16:25:33;;;;;;;8.80;5.07;;;;;;;;;;5032261;27;168477;-74
2021/01/03 16:28:02;;;;;;;10.80;4.13;;;;;;;;;;5032741;27;171944;-75
2021/01/03 16:30:32;;;;;;;7.60;3.90;;;;;;;;;;5011677;27;172258;-73
2021/01/03 16:33:23;;;;;;;5.20;4.07;;;;;;;;;;4999681;27;169426;-72
2021/01/03 16:35:56;;;;;;;7.23;4.20;;;;;;;;;;5008550;27;169345;-74
2021/01/03 16:38:23;;;;;;;8.00;4.17;;;;;;;;;;5014017;27;169282;-72
2021/01/03 16:40:54;;;;;;;7.47;3.87;;;;;;;;;;5023547;27;169011;-72
2021/01/03 16:43:38;;;;;;;4.43;3.50;;;;;;;;;;5015826;27;168719;-73
2021/01/03 16:46:08;;;;;;;7.63;4.00;;;;;;;;;;5022493;27;169571;-74
2021/01/03 16:49:02;;;;;;;5.23;3.47;;;;;;;;;;5030538;27;172820;-72
2021/01/03 16:51:31;;;;;;;7.43;3.77;;;;;;;;;;5019727;27;170289;-73
2021/01/03 16:54:02;;;;;;;7.10;4.10;;;;;;;;;;5030766;27;170153;-73
2021/01/03 16:56:38;;;;;;;4.53;3.57;;;;;;;;;;5030893;27;169526;-72
2021/01/03 16:59:17;;;;;;;6.03;4.23;;;;;;;;;;5032018;27;170661;-73
2021/01/03 17:01:53;;;;;;;13.33;4.43;;;;;;;;;;5010455;27;169735;-75
2021/01/03 17:04:20;;;;;;;15.07;4.57;;;;;;;;;;5030449;27;168407;-73
2021/01/03 17:06:46;;;;;;;12.77;4.50;;;;;;;;;;5031990;27;169134;-74
2021/01/03 17:09:27;;;;;;;7.00;4.33;;;;;;;;;;5022760;27;170481;-73
2021/01/03 17:12:17;;;;;;;7.50;3.93;;;;;;;;;;5011331;27;168051;-75
2021/01/03 17:15:03;;;;;;;14.27;5.00;;;;;;;;;;5030107;27;168956;-75
2021/01/03 17:17:38;;;;;;;5.10;4.03;;;;;;;;;;5031281;27;168647;-74
2021/01/03 17:20:11;;;;;;;8.30;4.40;;;;;;;;;;5006676;27;171066;-73
2021/01/03 17:22:38;;;;;;;6.37;4.60;;;;;;;;;;5016423;27;174009;-73
2021/01/03 17:25:24;;;;;;;8.07;4.27;;;;;;;;;;5006031;27;168392;-72
2021/01/03 17:27:57;;;;;;;15.07;5.60;;;;;;;;;;5025488;27;168376;-74
2021/01/03 17:30:37;;;;;;;5.90;4.43;;;;;;;;;;5011275;27;169211;-72
2021/01/03 17:33:12;;;;;;;8.60;4.53;;;;;;;;;;5018778;27;169049;-70
2021/01/03 17:35:44;;;;;;;8.63;4.70;;;;;;;;;;5022809;27;168881;-74
2021/01/03 17:38:14;;;;;;;8.93;5.00;;;;;;;;;;5012950;27;169405;-73
2021/01/03 17:40:59;;;;;;;7.67;5.10;;;;;;;;;;5011098;27;170045;-74
2021/01/03 17:43:26;;;;;;;8.00;5.17;;;;;;;;;;5018456;27;169179;-75
2021/01/03 17:45:55;;;;;;;10.00;5.60;;;;;;;;;;5011229;27;170900;-74
2021/01/03 17:48:30;;;;;;;9.10;4.90;;;;;;;;;;5028803;27;169182;-75
2021/01/03 17:50:57;;;;;;;14.43;5.20;;;;;;;;;;5026743;27;169272;-73
2021/01/03 17:53:29;;;;;;;5.97;4.40;;;;;;;;;;5026934;27;168391;-74
2021/01/03 17:55:56;;;;;;;9.40;5.13;;;;;;;;;;5011748;27;168475;-74
2021/01/03 17:58:22;;;;;;;13.87;5.43;;;;;;;;;;5031411;27;169108;-73
2021/01/03 18:00:50;;;;;;;13.70;5.00;;;;;;;;;;5000448;27;171526;-72
2021/01/03 18:03:24;;;;;;;9.80;5.30;;;;;;;;;;5018732;27;169234;-73
2021/01/03 18:05:51;;;;;;;8.17;4.97;;;;;;;;;;5030470;27;168426;-72
2021/01/03 18:08:18;;;;;;;6.73;5.37;;;;;;;;;;5028489;27;168353;-73
2021/01/03 18:10:44;;;;;;;11.50;5.10;;;;;;;;;;5022267;27;171744;-72
2021/01/03 18:13:12;;;;;;;19.53;5.53;;;;;;;;;;5032201;27;169364;-75
2021/01/03 18:15:39;;;;;;;16.70;5.80;;;;;;;;;;5014744;27;169176;-74
2021/01/03 18:18:08;;;;;;;18.40;6.37;;;;;;;;;;5024519;27;168489;-74
2021/01/03 18:20:35;;;;;;;14.60;5.33;;;;;;;;;;5034377;27;169894;-74
2021/01/03 18:23:42;;;;;;;10.27;5.13;;;;;;;;;;5031628;27;169878;-72
2021/01/03 18:26:09;;;;;;;9.00;4.83;;;;;;;;;;5022362;27;169515;-71
2021/01/03 18:28:36;;;;;;;14.87;5.33;;;;;;;;;;5023821;27;168181;-72
2021/01/03 18:31:04;;;;;;;12.57;5.53;;;;;;;;;;5013802;27;169282;-73
2021/01/03 18:33:35;;;;;;;8.63;5.07;;;;;;;;;;5023480;27;169544;-70
2021/01/03 18:36:06;;;;;;;15.47;5.60;;;;;;;;;;5030717;27;171078;-72
2021/01/03 18:38:36;;;;;;;6.67;4.43;;;;;;;;;;5013063;27;168570;-73
2021/01/03 18:41:05;;;;;;;12.23;5.73;;;;;;;;;;5013397;27;170606;-73
2021/01/03 18:43:31;;;;;;;11.00;5.83;;;;;;;;;;5014700;27;168773;-74
2021/01/03 18:45:59;;;;;;;14.90;5.57;;;;;;;;;;5001525;27;169346;-70
2021/01/03 18:48:28;;;;;;;5.77;4.87;;;;;;;;;;5028133;27;169208;-71
2021/01/03 18:50:55;;;;;;;9.23;5.53;;;;;;;;;;5014025;27;169219;-74
2021/01/03 18:53:22;;;;;;;13.00;5.47;;;;;;;;;;5012182;27;169173;-73
2021/01/03 18:55:48;;;;;;;16.57;5.80;;;;;;;;;;5013498;27;169064;-73
2021/01/03 18:58:15;;;;;;;15.23;6.17;;;;;;;;;;5033694;27;168954;-72
2021/01/03 19:00:42;;;;;;;13.23;6.20;;;;;;;;;;5013817;27;173297;-73
2021/01/03 19:03:11;;;;;;;9.67;4.87;;;;;;;;;;5025455;27;171729;-73
2021/01/03 19:05:37;;;;;;;16.07;6.13;;;;;;;;;;5019758;27;168397;-73
2021/01/03 19:08:04;;;;;;;15.77;6.33;;;;;;;;;;5028806;27;169061;-73
2021/01/03 19:10:32;;;;;;;20.43;6.20;;;;;;;;;;5013806;27;170032;-72
2021/01/03 19:13:01;;;;;;;10.00;5.00;;;;;;;;;;5021371;27;168327;-74
2021/01/03 19:15:28;;;;;;;6.93;5.20;;;;;;;;;;5028855;27;169020;-73
2021/01/03 19:17:55;;;;;;;14.17;5.53;;;;;;;;;;5034980;27;169316;-73
2021/01/03 19:20:22;;;;;;;11.30;5.87;;;;;;;;;;5018787;27;169970;-72
2021/01/03 19:22:49;;;;;;;14.70;5.30;;;;;;;;;;5026699;27;168919;-73
2021/01/03 19:25:16;;;;;;;30.10;6.60;;;;;;;;;;5028974;27;170665;-70
2021/01/03 19:27:43;;;;;;;12.70;5.83;;;;;;;;;;5030390;27;168792;-74
2021/01/03 19:30:10;;;;;;;11.37;4.90;;;;;;;;;;5034032;27;169890;-71
2021/01/03 19:32:38;;;;;;;9.67;5.70;;;;;;;;;;5023497;27;169718;-72
2021/01/03 19:35:07;;;;;;;12.33;4.87;;;;;;;;;;5027086;27;169396;-74
2021/01/03 19:37:33;;;;;;;15.17;5.70;;;;;;;;;;5025046;27;169428;-72
2021/01/03 19:40:00;;;;;;;20.37;6.63;;;;;;;;;;5033682;27;169746;-73
2021/01/03 19:42:28;;;;;;;10.87;5.40;;;;;;;;;;4999970;27;170076;-73
2021/01/03 19:44:56;;;;;;;12.37;5.17;;;;;;;;;;5035140;27;168466;-73
2021/01/03 19:47:27;;;;;;;27.83;6.30;;;;;;;;;;5029457;27;168852;-72
2021/01/03 19:49:53;;;;;;;7.20;4.90;;;;;;;;;;5014318;27;171999;-72
2021/01/03 19:52:20;;;;;;;8.97;4.93;;;;;;;;;;5015555;27;170025;-71
2021/01/03 19:54:47;;;;;;;6.93;5.03;;;;;;;;;;5015091;27;168372;-71
2021/01/03 19:57:13;;;;;;;11.43;5.50;;;;;;;;;;5015525;27;169115;-73
2021/01/03 19:59:40;;;;;;;8.23;4.80;;;;;;;;;;5020487;27;170159;-75
2021/01/03 20:02:07;;;;;;;10.60;5.13;;;;;;;;;;5014565;27;170275;-75
2021/01/03 20:04:34;;;;;;;11.07;5.17;;;;;;;;;;5015380;27;168781;-73
2021/01/03 20:07:01;;;;;;;8.17;5.00;;;;;;;;;;5015837;27;169451;-72
2021/01/03 20:09:28;;;;;;;6.63;3.77;;;;;;;;;;4997225;27;169293;-72
2021/01/03 20:12:00;;;;;;;8.70;4.90;;;;;;;;;;5014465;27;170870;-73
2021/01/03 20:14:28;;;;;;;6.93;4.47;;;;;;;;;;5014081;27;170046;-72
2021/01/03 20:16:55;;;;;;;15.47;5.33;;;;;;;;;;5029722;27;168450;-73
2021/01/03 20:19:25;;;;;;;10.90;5.03;;;;;;;;;;5035049;27;169583;-72
2021/01/03 20:21:53;;;;;;;7.73;4.27;;;;;;;;;;5034067;27;168745;-71
2021/01/03 20:24:21;;;;;;;4.80;3.87;;;;;;;;;;5027107;27;168734;-73
2021/01/03 20:26:49;;;;;;;5.30;4.23;;;;;;;;;;5029171;27;168604;-73
2021/01/03 20:29:16;;;;;;;9.30;4.63;;;;;;;;;;5014751;27;169853;-72
2021/01/03 20:31:42;;;;;;;7.87;5.00;;;;;;;;;;5015193;27;169756;-74
2021/01/03 20:34:09;;;;;;;7.47;4.50;;;;;;;;;;5027503;27;169176;-71
2021/01/03 20:36:36;;;;;;;7.80;4.50;;;;;;;;;;5018635;27;168730;-73
2021/01/03 20:39:03;;;;;;;11.83;5.00;;;;;;;;;;5020204;27;170936;-73
2021/01/03 20:41:33;;;;;;;11.47;4.73;;;;;;;;;;5033803;27;169839;-73
2021/01/03 20:44:00;;;;;;;19.00;5.43;;;;;;;;;;5027495;27;168432;-74
2021/01/03 20:46:27;;;;;;;12.67;4.93;;;;;;;;;;5028836;27;168385;-75
2021/01/03 20:48:54;;;;;;;9.33;4.97;;;;;;;;;;5016352;27;170266;-74
2021/01/03 20:51:22;;;;;;;6.10;4.57;;;;;;;;;;5030141;27;169201;-71
2021/01/03 20:53:48;;;;;;;9.17;4.93;;;;;;;;;;5034558;27;168457;-73
2021/01/03 20:56:18;;;;;;;9.40;4.67;;;;;;;;;;5029968;27;167750;-73
2021/01/03 20:58:45;;;;;;;7.67;4.50;;;;;;;;;;5027552;27;170802;-69
2021/01/03 21:01:12;;;;;;;9.60;5.00;;;;;;;;;;5033788;27;168734;-73
2021/01/03 21:03:38;;;;;;;10.90;5.40;;;;;;;;;;5012967;27;170342;-70
2021/01/03 21:06:06;;;;;;;14.53;5.73;;;;;;;;;;5014677;27;168688;-70
2021/01/03 21:08:33;;;;;;;8.27;5.03;;;;;;;;;;5034081;27;169308;-70
2021/01/03 21:10:59;;;;;;;10.47;5.37;;;;;;;;;;5028530;27;169715;-73
2021/01/03 21:13:26;;;;;;;10.57;5.53;;;;;;;;;;5032747;27;168316;-74
2021/01/03 21:15:53;;;;;;;10.83;6.03;;;;;;;;;;5018696;27;168709;-73
2021/01/03 21:18:19;;;;;;;16.57;5.70;;;;;;;;;;5015920;27;169134;-73
2021/01/03 21:20:46;;;;;;;6.93;5.07;;;;;;;;;;5022253;27;169300;-70
2021/01/03 21:23:13;;;;;;;14.00;6.13;;;;;;;;;;5016312;27;169074;-73
2021/01/03 21:25:46;;;;;;;21.57;7.10;;;;;;;;;;5016550;27;171993;-70
2021/01/03 21:28:24;;;;;;;17.90;6.93;;;;;;;;;;5013692;27;171937;-69
2021/01/03 21:31:06;;;;;;;9.40;5.83;;;;;;;;;;5011736;27;169570;-74
2021/01/03 21:33:39;;;;;;;13.77;5.77;;;;;;;;;;5030411;27;168507;-71
2021/01/03 21:36:17;;;;;;;20.20;6.07;;;;;;;;;;5023232;27;170699;-73
2021/01/03 21:38:45;;;;;;;11.47;6.70;;;;;;;;;;5019445;27;171150;-73
2021/01/03 21:41:24;;;;;;;17.00;6.70;;;;;;;;;;5027500;27;169166;-74
2021/01/03 21:43:57;;;;;;;13.20;5.60;;;;;;;;;;5012337;27;168542;-69
2021/01/03 21:46:42;;;;;;;12.03;5.50;;;;;;;;;;5018958;27;168066;-73
2021/01/03 21:49:13;;;;;;;14.20;6.83;;;;;;;;;;5026998;27;170576;-72
2021/01/03 21:51:40;;;;;;;16.07;5.90;;;;;;;;;;5026151;27;169078;-73
2021/01/03 21:54:16;;;;;;;10.77;5.87;;;;;;;;;;5016334;27;172329;-72
2021/01/03 21:57:01;;;;;;;7.03;5.40;;;;;;;;;;5019943;27;170205;-70
2021/01/03 21:59:31;;;;;;;10.10;5.73;;;;;;;;;;5017484;27;169803;-69
2021/01/03 22:02:03;;;;;;;6.83;5.40;;;;;;;;;;5011689;27;169379;-72
2021/01/03 22:04:37;;;;;;;7.30;4.87;;;;;;;;;;5019151;27;169703;-73
2021/01/03 22:07:24;;;;;;;9.87;5.37;;;;;;;;;;5002251;27;169639;-71
2021/01/03 22:10:13;;;;;;;16.33;5.73;;;;;;;;;;5017120;27;169790;-72
2021/01/03 22:12:39;;;;;;;14.60;6.20;;;;;;;;;;5011469;27;168744;-73
2021/01/03 22:15:06;;;;;;;11.30;5.50;;;;;;;;;;5013462;27;170315;-69
2021/01/03 22:17:51;;;;;;;8.10;5.63;;;;;;;;;;5024161;27;170513;-72
2021/01/03 22:20:36;;;;;;;8.97;5.50;;;;;;;;;;5023943;27;171202;-71
2021/01/03 22:23:27;;;;;;;6.80;5.33;;;;;;;;;;5012276;27;169124;-71
2021/01/03 22:25:54;;;;;;;7.43;5.60;;;;;;;;;;5012263;27;169167;-71
2021/01/03 22:28:43;;;;;;;7.00;4.83;;;;;;;;;;5015589;27;169752;-71
